PWSweather.com
Personal Weather Stations
Station Observations
MENWDWX1
Menstrie, ScotlandGB

MenstrieScotlandGB

Lat: 56.148322, Lon: -3.85483

Elevation: 62

Station Type: Davis Vantage Pro 2

High Low Average
Temperature 48.3°F9.1°C 39.2°F4.0°C 43.0°F6.1°C
Dew Point 39.8°F4.3°C 29.7°F-1.3°C 34.4°F1.3°C
Winds 17.3 mph 27.8 kmh Calm Calm 7.0 mph WNW11.3 kmh WNW
Wind Gusts 32.2 mph51.8 kmh 1.2 mph1.9 kmh 12.0 mph19.3 kmh
Humidity 80% 58% 72%
Pressure 30.02 in1016.6 mb 29.76 in1007.8 mb -
Precipitation 0.01 in0.3 mm - -
Hour Temp Dew Point Humidity Winds Wind Gusts Pressure Precip Precip Rate Daily Precip Total
12:00 AM 46.0°F7.8°C 39.8°F4.3°C 79% 8.1 mph W13.0 kmh W 11.5 mph18.5 kmh 29.78 in1008.5 mb - 0.00 in0.0 mm 0.00 in0.0 mm
12:05 AM 45.8°F7.7°C 39.7°F4.3°C 79% 8.1 mph WNW13.0 kmh WNW 9.2 mph14.8 kmh 29.77 in1008.1 mb - 0.00 in0.0 mm 0.00 in0.0 mm
12:10 AM 45.6°F7.6°C 39.5°F4.2°C 79% 6.9 mph W11.1 kmh W 11.5 mph18.5 kmh 29.78 in1008.5 mb - 0.00 in0.0 mm 0.00 in0.0 mm
12:15 AM 45.5°F7.5°C 39.4°F4.1°C 79% 8.1 mph W13.0 kmh W 13.8 mph22.2 kmh 29.77 in1008.1 mb - 0.00 in0.0 mm 0.00 in0.0 mm
12:20 AM 45.4°F7.4°C 39.2°F4.0°C 79% 8.1 mph W13.0 kmh W 13.8 mph22.2 kmh 29.78 in1008.5 mb - 0.00 in0.0 mm 0.00 in0.0 mm
12:25 AM 45.3°F7.4°C 39.1°F3.9°C 79% 9.2 mph W14.8 kmh W 11.5 mph18.5 kmh 29.78 in1008.5 mb - 0.00 in0.0 mm 0.00 in0.0 mm
12:30 AM 45.2°F7.3°C 39.1°F3.9°C 79% 11.5 mph W18.5 kmh W 18.4 mph29.6 kmh 29.77 in1008.1 mb - 0.00 in0.0 mm 0.00 in0.0 mm
12:35 AM 45.2°F7.3°C 39.1°F3.9°C 79% 9.2 mph WNW14.8 kmh WNW 15.0 mph24.1 kmh 29.77 in1008.1 mb - 0.00 in0.0 mm 0.00 in0.0 mm
12:40 AM 45.1°F7.3°C 39.0°F3.9°C 79% 5.8 mph W9.3 kmh W 13.8 mph22.2 kmh 29.77 in1008.1 mb - 0.00 in0.0 mm 0.00 in0.0 mm
12:45 AM 45.0°F7.2°C 38.9°F3.8°C 79% 10.4 mph W16.7 kmh W 15.0 mph24.1 kmh 29.77 in1008.1 mb - 0.00 in0.0 mm 0.00 in0.0 mm
12:50 AM 45.0°F7.2°C 38.9°F3.8°C 79% 10.4 mph W16.7 kmh W 13.8 mph22.2 kmh 29.77 in1008.1 mb - 0.00 in0.0 mm 0.00 in0.0 mm
12:55 AM 44.9°F7.2°C 38.8°F3.8°C 79% 8.1 mph WNW13.0 kmh WNW 13.8 mph22.2 kmh 29.77 in1008.1 mb - 0.00 in0.0 mm 0.00 in0.0 mm
01:00 AM 44.8°F7.1°C 38.7°F3.7°C 79% 10.4 mph W16.7 kmh W 16.1 mph25.9 kmh 29.77 in1008.1 mb - 0.00 in0.0 mm 0.00 in0.0 mm
01:05 AM 44.8°F7.1°C 38.7°F3.7°C 79% 10.4 mph W16.7 kmh W 17.3 mph27.8 kmh 29.77 in1008.1 mb - 0.00 in0.0 mm 0.00 in0.0 mm
01:10 AM 44.9°F7.2°C 38.8°F3.8°C 79% 9.2 mph W14.8 kmh W 12.7 mph20.4 kmh 29.77 in1008.1 mb - 0.00 in0.0 mm 0.00 in0.0 mm
01:15 AM 44.8°F7.1°C 38.7°F3.7°C 79% 8.1 mph WNW13.0 kmh WNW 16.1 mph25.9 kmh 29.77 in1008.1 mb - 0.00 in0.0 mm 0.00 in0.0 mm
01:20 AM 44.7°F7.1°C 38.6°F3.7°C 79% 6.9 mph W11.1 kmh W 11.5 mph18.5 kmh 29.77 in1008.1 mb - 0.00 in0.0 mm 0.00 in0.0 mm
01:25 AM 44.5°F6.9°C 38.4°F3.6°C 79% 8.1 mph WNW13.0 kmh WNW 16.1 mph25.9 kmh 29.77 in1008.1 mb - 0.00 in0.0 mm 0.00 in0.0 mm
01:30 AM 44.3°F6.8°C 38.2°F3.4°C 79% 9.2 mph WNW14.8 kmh WNW 12.7 mph20.4 kmh 29.77 in1008.1 mb - 0.00 in0.0 mm 0.00 in0.0 mm
01:35 AM 44.2°F6.8°C 38.1°F3.4°C 79% 6.9 mph WNW11.1 kmh WNW 11.5 mph18.5 kmh 29.77 in1008.1 mb - 0.00 in0.0 mm 0.00 in0.0 mm
01:40 AM 44.1°F6.7°C 38.0°F3.3°C 79% 6.9 mph W11.1 kmh W 10.4 mph16.7 kmh 29.77 in1008.1 mb - 0.00 in0.0 mm 0.00 in0.0 mm
01:45 AM 44.1°F6.7°C 38.0°F3.3°C 79% 6.9 mph NW11.1 kmh NW 11.5 mph18.5 kmh 29.77 in1008.1 mb - 0.00 in0.0 mm 0.00 in0.0 mm
01:50 AM 43.9°F6.6°C 37.8°F3.2°C 79% 6.9 mph NW11.1 kmh NW 11.5 mph18.5 kmh 29.77 in1008.1 mb - 0.00 in0.0 mm 0.00 in0.0 mm
01:55 AM 43.7°F6.5°C 37.9°F3.3°C 80% 5.8 mph WNW9.3 kmh WNW 6.9 mph11.1 kmh 29.77 in1008.1 mb - 0.00 in0.0 mm 0.00 in0.0 mm
02:00 AM 43.4°F6.3°C 37.3°F2.9°C 79% 3.5 mph NW5.6 kmh NW 8.1 mph13.0 kmh 29.76 in1007.8 mb - 0.00 in0.0 mm 0.00 in0.0 mm
02:05 AM 43.2°F6.2°C 37.4°F3.0°C 80% 3.5 mph WNW5.6 kmh WNW 10.4 mph16.7 kmh 29.76 in1007.8 mb - 0.00 in0.0 mm 0.00 in0.0 mm
02:10 AM 43.0°F6.1°C 37.3°F2.9°C 80% 5.8 mph W9.3 kmh W 10.4 mph16.7 kmh 29.76 in1007.8 mb - 0.00 in0.0 mm 0.00 in0.0 mm
02:15 AM 43.0°F6.1°C 36.9°F2.7°C 79% 3.5 mph W5.6 kmh W 8.1 mph13.0 kmh 29.76 in1007.8 mb - 0.00 in0.0 mm 0.00 in0.0 mm
02:20 AM 43.1°F6.2°C 37.3°F2.9°C 80% 5.8 mph W9.3 kmh W 9.2 mph14.8 kmh 29.76 in1007.8 mb - 0.00 in0.0 mm 0.00 in0.0 mm
02:25 AM 43.1°F6.2°C 37.1°F2.8°C 79% 5.8 mph W9.3 kmh W 11.5 mph18.5 kmh 29.76 in1007.8 mb - 0.00 in0.0 mm 0.00 in0.0 mm
02:30 AM 43.2°F6.2°C 37.1°F2.8°C 79% 4.6 mph W7.4 kmh W 8.1 mph13.0 kmh 29.76 in1007.8 mb - 0.00 in0.0 mm 0.00 in0.0 mm
02:35 AM 43.0°F6.1°C 36.9°F2.7°C 79% 5.8 mph WNW9.3 kmh WNW 9.2 mph14.8 kmh 29.76 in1007.8 mb - 0.00 in0.0 mm 0.00 in0.0 mm
02:40 AM 42.9°F6.1°C 36.8°F2.7°C 79% 6.9 mph WNW11.1 kmh WNW 10.4 mph16.7 kmh 29.76 in1007.8 mb - 0.00 in0.0 mm 0.00 in0.0 mm
02:45 AM 42.8°F6.0°C 36.7°F2.6°C 79% 4.6 mph WNW7.4 kmh WNW 6.9 mph11.1 kmh 29.76 in1007.8 mb - 0.00 in0.0 mm 0.00 in0.0 mm
02:50 AM 42.7°F5.9°C 36.6°F2.6°C 79% 5.8 mph WNW9.3 kmh WNW 10.4 mph16.7 kmh 29.77 in1008.1 mb - 0.00 in0.0 mm 0.00 in0.0 mm
02:55 AM 42.7°F5.9°C 36.6°F2.6°C 79% 6.9 mph WNW11.1 kmh WNW 15.0 mph24.1 kmh 29.76 in1007.8 mb - 0.00 in0.0 mm 0.00 in0.0 mm
03:00 AM 42.7°F5.9°C 36.6°F2.6°C 79% 8.1 mph W13.0 kmh W 10.4 mph16.7 kmh 29.76 in1007.8 mb - 0.00 in0.0 mm 0.00 in0.0 mm
03:05 AM 42.7°F5.9°C 36.6°F2.6°C 79% 3.5 mph WNW5.6 kmh WNW 8.1 mph13.0 kmh 29.76 in1007.8 mb - 0.00 in0.0 mm 0.00 in0.0 mm
03:10 AM 42.7°F5.9°C 36.6°F2.6°C 79% 3.5 mph WNW5.6 kmh WNW 4.6 mph7.4 kmh 29.76 in1007.8 mb - 0.00 in0.0 mm 0.00 in0.0 mm
03:15 AM 42.5°F5.8°C 36.4°F2.4°C 79% 4.6 mph NW7.4 kmh NW 9.2 mph14.8 kmh 29.77 in1008.1 mb - 0.00 in0.0 mm 0.00 in0.0 mm
03:20 AM 42.3°F5.7°C 36.2°F2.3°C 79% 4.6 mph WNW7.4 kmh WNW 6.9 mph11.1 kmh 29.77 in1008.1 mb - 0.00 in0.0 mm 0.00 in0.0 mm
03:25 AM 42.1°F5.6°C 36.0°F2.2°C 79% 3.5 mph WNW5.6 kmh WNW 8.1 mph13.0 kmh 29.77 in1008.1 mb - 0.00 in0.0 mm 0.00 in0.0 mm
03:30 AM 42.1°F5.6°C 36.1°F2.3°C 79% 3.5 mph W5.6 kmh W 9.2 mph14.8 kmh 29.76 in1007.8 mb - 0.00 in0.0 mm 0.00 in0.0 mm
03:35 AM 42.1°F5.6°C 36.1°F2.3°C 79% 4.6 mph W7.4 kmh W 9.2 mph14.8 kmh 29.76 in1007.8 mb - 0.00 in0.0 mm 0.00 in0.0 mm
03:40 AM 42.2°F5.7°C 36.2°F2.3°C 79% 3.5 mph W5.6 kmh W 3.5 mph5.6 kmh 29.76 in1007.8 mb - 0.00 in0.0 mm 0.00 in0.0 mm
03:45 AM 42.3°F5.7°C 36.3°F2.4°C 79% 5.8 mph W9.3 kmh W 11.5 mph18.5 kmh 29.76 in1007.8 mb - 0.00 in0.0 mm 0.00 in0.0 mm
03:50 AM 42.3°F5.7°C 36.3°F2.4°C 79% 5.8 mph WNW9.3 kmh WNW 10.4 mph16.7 kmh 29.76 in1007.8 mb - 0.00 in0.0 mm 0.00 in0.0 mm
03:55 AM 42.2°F5.7°C 36.1°F2.3°C 79% 5.8 mph WNW9.3 kmh WNW 9.2 mph14.8 kmh 29.76 in1007.8 mb - 0.00 in0.0 mm 0.00 in0.0 mm
04:00 AM 42.2°F5.7°C 36.2°F2.3°C 79% 5.8 mph W9.3 kmh W 8.1 mph13.0 kmh 29.76 in1007.8 mb - 0.00 in0.0 mm 0.00 in0.0 mm
04:05 AM 42.2°F5.7°C 36.2°F2.3°C 79% 6.9 mph W11.1 kmh W 11.5 mph18.5 kmh 29.76 in1007.8 mb - 0.00 in0.0 mm 0.00 in0.0 mm
04:10 AM 42.6°F5.9°C 36.5°F2.5°C 79% 5.8 mph W9.3 kmh W 9.2 mph14.8 kmh 29.76 in1007.8 mb - 0.00 in0.0 mm 0.00 in0.0 mm
04:15 AM 43.0°F6.1°C 36.6°F2.6°C 78% 9.2 mph W14.8 kmh W 11.5 mph18.5 kmh 29.76 in1007.8 mb - 0.00 in0.0 mm 0.00 in0.0 mm
04:20 AM 43.3°F6.3°C 36.9°F2.7°C 78% 6.9 mph NW11.1 kmh NW 10.4 mph16.7 kmh 29.76 in1007.8 mb - 0.00 in0.0 mm 0.00 in0.0 mm
04:25 AM 43.4°F6.3°C 36.7°F2.6°C 77% 5.8 mph W9.3 kmh W 11.5 mph18.5 kmh 29.77 in1008.1 mb - 0.00 in0.0 mm 0.00 in0.0 mm
04:30 AM 43.4°F6.3°C 36.7°F2.6°C 77% 3.5 mph NW5.6 kmh NW 10.4 mph16.7 kmh 29.77 in1008.1 mb - 0.00 in0.0 mm 0.00 in0.0 mm
04:35 AM 43.3°F6.3°C 36.6°F2.6°C 77% 2.3 mph NW3.7 kmh NW 10.4 mph16.7 kmh 29.77 in1008.1 mb - 0.00 in0.0 mm 0.00 in0.0 mm
04:40 AM 43.1°F6.2°C 36.4°F2.4°C 77% 3.5 mph NNW5.6 kmh NNW 8.1 mph13.0 kmh 29.77 in1008.1 mb - 0.00 in0.0 mm 0.00 in0.0 mm
04:45 AM 43.0°F6.1°C 36.3°F2.4°C 77% 2.3 mph NNW3.7 kmh NNW 3.5 mph5.6 kmh 29.77 in1008.1 mb - 0.00 in0.0 mm 0.00 in0.0 mm
04:50 AM 42.9°F6.1°C 36.5°F2.5°C 78% 2.3 mph NW3.7 kmh NW 8.1 mph13.0 kmh 29.77 in1008.1 mb - 0.00 in0.0 mm 0.00 in0.0 mm
04:55 AM 42.7°F5.9°C 36.3°F2.4°C 78% 4.6 mph NNW7.4 kmh NNW 8.1 mph13.0 kmh 29.77 in1008.1 mb - 0.00 in0.0 mm 0.00 in0.0 mm
05:00 AM 42.5°F5.8°C 36.1°F2.3°C 78% 2.3 mph NW3.7 kmh NW 8.1 mph13.0 kmh 29.77 in1008.1 mb - 0.00 in0.0 mm 0.00 in0.0 mm
05:05 AM 42.5°F5.8°C 36.1°F2.3°C 78% 3.5 mph W5.6 kmh W 5.8 mph9.3 kmh 29.77 in1008.1 mb - 0.00 in0.0 mm 0.00 in0.0 mm
05:10 AM 42.7°F5.9°C 36.3°F2.4°C 78% 1.2 mph NW1.9 kmh NW 4.6 mph7.4 kmh 29.77 in1008.1 mb - 0.00 in0.0 mm 0.00 in0.0 mm
05:15 AM 42.7°F5.9°C 36.3°F2.4°C 78% 1.2 mph WSW1.9 kmh WSW 2.3 mph3.7 kmh 29.77 in1008.1 mb - 0.00 in0.0 mm 0.00 in0.0 mm
05:20 AM 42.8°F6.0°C 36.1°F2.3°C 77% 4.6 mph NW7.4 kmh NW 4.6 mph7.4 kmh 29.77 in1008.1 mb - 0.00 in0.0 mm 0.00 in0.0 mm
05:25 AM 42.9°F6.1°C 36.2°F2.3°C 77% 2.3 mph NNE3.7 kmh NNE 3.5 mph5.6 kmh 29.77 in1008.1 mb - 0.00 in0.0 mm 0.00 in0.0 mm
05:30 AM 42.9°F6.1°C 36.2°F2.3°C 77% 2.3 mph NW3.7 kmh NW 3.5 mph5.6 kmh 29.78 in1008.5 mb - 0.00 in0.0 mm 0.00 in0.0 mm
05:35 AM 42.7°F5.9°C 36.3°F2.4°C 78% 3.5 mph W5.6 kmh W 6.9 mph11.1 kmh 29.77 in1008.1 mb - 0.00 in0.0 mm 0.00 in0.0 mm
05:40 AM 42.7°F5.9°C 36.3°F2.4°C 78% 2.3 mph NW3.7 kmh NW 3.5 mph5.6 kmh 29.78 in1008.5 mb - 0.00 in0.0 mm 0.00 in0.0 mm
05:45 AM 42.7°F5.9°C 36.3°F2.4°C 78% 2.3 mph WSW3.7 kmh WSW 3.5 mph5.6 kmh 29.78 in1008.5 mb - 0.00 in0.0 mm 0.00 in0.0 mm
05:50 AM 42.7°F5.9°C 36.3°F2.4°C 78% 3.5 mph SSW5.6 kmh SSW 3.5 mph5.6 kmh 29.77 in1008.1 mb - 0.00 in0.0 mm 0.00 in0.0 mm
05:55 AM 42.6°F5.9°C 36.2°F2.3°C 78% 2.3 mph W3.7 kmh W 8.1 mph13.0 kmh 29.78 in1008.5 mb - 0.00 in0.0 mm 0.00 in0.0 mm
06:00 AM 42.5°F5.8°C 36.1°F2.3°C 78% 2.3 mph WNW3.7 kmh WNW 3.5 mph5.6 kmh 29.78 in1008.5 mb - 0.00 in0.0 mm 0.00 in0.0 mm
06:05 AM 42.3°F5.7°C 35.9°F2.2°C 78% 3.5 mph W5.6 kmh W 8.1 mph13.0 kmh 29.78 in1008.5 mb - 0.00 in0.0 mm 0.00 in0.0 mm
06:10 AM 42.2°F5.7°C 36.1°F2.3°C 79% 3.5 mph N5.6 kmh N 5.8 mph9.3 kmh 29.78 in1008.5 mb - 0.00 in0.0 mm 0.00 in0.0 mm
06:15 AM 41.9°F5.5°C 35.9°F2.2°C 79% 1.2 mph W1.9 kmh W 3.5 mph5.6 kmh 29.78 in1008.5 mb - 0.00 in0.0 mm 0.00 in0.0 mm
06:20 AM 41.6°F5.3°C 35.5°F1.9°C 79% 2.3 mph N3.7 kmh N 3.5 mph5.6 kmh 29.78 in1008.5 mb - 0.00 in0.0 mm 0.00 in0.0 mm
06:25 AM 41.2°F5.1°C 35.2°F1.8°C 79% 2.3 mph NW3.7 kmh NW 3.5 mph5.6 kmh 29.78 in1008.5 mb - 0.00 in0.0 mm 0.00 in0.0 mm
06:30 AM 40.8°F4.9°C 35.1°F1.7°C 80% 4.6 mph WSW7.4 kmh WSW 10.4 mph16.7 kmh 29.79 in1008.8 mb - 0.00 in0.0 mm 0.00 in0.0 mm
06:35 AM 40.7°F4.8°C 35.0°F1.7°C 80% 4.6 mph W7.4 kmh W 6.9 mph11.1 kmh 29.79 in1008.8 mb - 0.00 in0.0 mm 0.00 in0.0 mm
06:40 AM 40.6°F4.8°C 34.9°F1.6°C 80% 5.8 mph W9.3 kmh W 6.9 mph11.1 kmh 29.79 in1008.8 mb - 0.00 in0.0 mm 0.00 in0.0 mm
06:45 AM 40.5°F4.7°C 34.8°F1.6°C 80% 6.9 mph W11.1 kmh W 11.5 mph18.5 kmh 29.79 in1008.8 mb - 0.00 in0.0 mm 0.00 in0.0 mm
06:50 AM 40.6°F4.8°C 34.6°F1.4°C 79% 5.8 mph W9.3 kmh W 11.5 mph18.5 kmh 29.79 in1008.8 mb - 0.00 in0.0 mm 0.00 in0.0 mm
06:55 AM 40.9°F4.9°C 34.9°F1.6°C 79% 8.1 mph W13.0 kmh W 12.7 mph20.4 kmh 29.79 in1008.8 mb - 0.00 in0.0 mm 0.00 in0.0 mm
07:00 AM 41.1°F5.1°C 35.1°F1.7°C 79% 5.8 mph WNW9.3 kmh WNW 6.9 mph11.1 kmh 29.80 in1009.1 mb - 0.00 in0.0 mm 0.00 in0.0 mm
07:05 AM 41.1°F5.1°C 34.8°F1.6°C 78% 6.9 mph W11.1 kmh W 9.2 mph14.8 kmh 29.80 in1009.1 mb - 0.00 in0.0 mm 0.00 in0.0 mm
07:10 AM 41.1°F5.1°C 34.8°F1.6°C 78% 6.9 mph W11.1 kmh W 10.4 mph16.7 kmh 29.80 in1009.1 mb - 0.00 in0.0 mm 0.00 in0.0 mm
07:15 AM 41.2°F5.1°C 34.9°F1.6°C 78% 5.8 mph WSW9.3 kmh WSW 9.2 mph14.8 kmh 29.80 in1009.1 mb - 0.00 in0.0 mm 0.00 in0.0 mm
07:20 AM 40.9°F4.9°C 34.6°F1.4°C 78% 3.5 mph W5.6 kmh W 6.9 mph11.1 kmh 29.81 in1009.5 mb - 0.00 in0.0 mm 0.00 in0.0 mm
07:25 AM 40.6°F4.8°C 34.3°F1.3°C 78% 2.3 mph W3.7 kmh W 3.5 mph5.6 kmh 29.81 in1009.5 mb - 0.00 in0.0 mm 0.00 in0.0 mm
07:30 AM 40.2°F4.6°C 34.2°F1.2°C 79% 4.6 mph WNW7.4 kmh WNW 5.8 mph9.3 kmh 29.81 in1009.5 mb - 0.00 in0.0 mm 0.00 in0.0 mm
07:35 AM 39.9°F4.4°C 33.9°F1.1°C 79% 3.5 mph W5.6 kmh W 6.9 mph11.1 kmh 29.81 in1009.5 mb - 0.00 in0.0 mm 0.00 in0.0 mm
07:40 AM 39.7°F4.3°C 33.7°F0.9°C 79% 2.3 mph W3.7 kmh W 3.5 mph5.6 kmh 29.81 in1009.5 mb - 0.00 in0.0 mm 0.00 in0.0 mm
07:45 AM 39.6°F4.2°C 33.9°F1.1°C 80% 2.3 mph WSW3.7 kmh WSW 3.5 mph5.6 kmh 29.81 in1009.5 mb - 0.00 in0.0 mm 0.00 in0.0 mm
07:50 AM 39.5°F4.2°C 33.8°F1.0°C 80% 1.2 mph W1.9 kmh W 2.3 mph3.7 kmh 29.81 in1009.5 mb - 0.00 in0.0 mm 0.00 in0.0 mm
07:55 AM 39.3°F4.1°C 33.7°F0.9°C 80% Calm Calm 1.2 mph1.9 kmh 29.82 in1009.8 mb - 0.00 in0.0 mm 0.00 in0.0 mm
08:00 AM 39.3°F4.1°C 33.6°F0.9°C 80% 1.2 mph W1.9 kmh W 2.3 mph3.7 kmh 29.82 in1009.8 mb - 0.00 in0.0 mm 0.00 in0.0 mm
08:05 AM 39.4°F4.1°C 33.7°F0.9°C 80% 1.2 mph W1.9 kmh W 2.3 mph3.7 kmh 29.82 in1009.8 mb - 0.00 in0.0 mm 0.00 in0.0 mm
08:10 AM 39.3°F4.1°C 33.6°F0.9°C 80% Calm Calm 1.2 mph1.9 kmh 29.82 in1009.8 mb - 0.00 in0.0 mm 0.00 in0.0 mm
08:15 AM 39.2°F4.0°C 33.5°F0.8°C 80% 1.2 mph W1.9 kmh W 2.3 mph3.7 kmh 29.82 in1009.8 mb - 0.00 in0.0 mm 0.00 in0.0 mm
08:20 AM 39.2°F4.0°C 33.5°F0.8°C 80% 3.5 mph WSW5.6 kmh WSW 3.5 mph5.6 kmh 29.82 in1009.8 mb - 0.00 in0.0 mm 0.00 in0.0 mm
08:25 AM 39.4°F4.1°C 33.8°F1.0°C 80% 3.5 mph WSW5.6 kmh WSW 8.1 mph13.0 kmh 29.82 in1009.8 mb - 0.00 in0.0 mm 0.00 in0.0 mm
08:30 AM 39.5°F4.2°C 33.8°F1.0°C 80% 3.5 mph W5.6 kmh W 5.8 mph9.3 kmh 29.82 in1009.8 mb - 0.00 in0.0 mm 0.00 in0.0 mm
08:35 AM 39.6°F4.2°C 33.9°F1.1°C 80% 2.3 mph WNW3.7 kmh WNW 3.5 mph5.6 kmh 29.82 in1009.8 mb - 0.00 in0.0 mm 0.00 in0.0 mm
08:40 AM 39.7°F4.3°C 34.0°F1.1°C 80% 2.3 mph W3.7 kmh W 3.5 mph5.6 kmh 29.82 in1009.8 mb - 0.00 in0.0 mm 0.00 in0.0 mm
08:45 AM 39.8°F4.3°C 34.2°F1.2°C 80% 4.6 mph W7.4 kmh W 9.2 mph14.8 kmh 29.82 in1009.8 mb - 0.00 in0.0 mm 0.00 in0.0 mm
08:50 AM 40.2°F4.6°C 34.5°F1.4°C 80% 3.5 mph WSW5.6 kmh WSW 4.6 mph7.4 kmh 29.82 in1009.8 mb - 0.00 in0.0 mm 0.00 in0.0 mm
08:55 AM 40.6°F4.8°C 34.6°F1.4°C 79% 4.6 mph WSW7.4 kmh WSW 6.9 mph11.1 kmh 29.82 in1009.8 mb - 0.00 in0.0 mm 0.00 in0.0 mm
09:00 AM 41.0°F5.0°C 35.0°F1.7°C 79% 4.6 mph WSW7.4 kmh WSW 8.1 mph13.0 kmh 29.82 in1009.8 mb - 0.00 in0.0 mm 0.00 in0.0 mm
09:05 AM 41.3°F5.2°C 35.3°F1.8°C 79% 4.6 mph SW7.4 kmh SW 10.4 mph16.7 kmh 29.82 in1009.8 mb - 0.00 in0.0 mm 0.00 in0.0 mm
09:10 AM 41.6°F5.3°C 35.3°F1.8°C 78% 5.8 mph WSW9.3 kmh WSW 10.4 mph16.7 kmh 29.82 in1009.8 mb - 0.00 in0.0 mm 0.00 in0.0 mm
09:15 AM 42.0°F5.6°C 35.6°F2.0°C 78% 6.9 mph WSW11.1 kmh WSW 11.5 mph18.5 kmh 29.83 in1010.2 mb - 0.00 in0.0 mm 0.00 in0.0 mm
09:20 AM 42.2°F5.7°C 35.5°F1.9°C 77% 6.9 mph WSW11.1 kmh WSW 10.4 mph16.7 kmh 29.83 in1010.2 mb - 0.00 in0.0 mm 0.00 in0.0 mm
09:25 AM 42.3°F5.7°C 35.6°F2.0°C 77% 5.8 mph WSW9.3 kmh WSW 10.4 mph16.7 kmh 29.83 in1010.2 mb - 0.00 in0.0 mm 0.00 in0.0 mm
09:30 AM 42.4°F5.8°C 35.7°F2.1°C 77% 4.6 mph SW7.4 kmh SW 9.2 mph14.8 kmh 29.83 in1010.2 mb - 0.00 in0.0 mm 0.00 in0.0 mm
09:35 AM 42.6°F5.9°C 35.9°F2.2°C 77% 4.6 mph SW7.4 kmh SW 4.6 mph7.4 kmh 29.83 in1010.2 mb - 0.00 in0.0 mm 0.00 in0.0 mm
09:40 AM 42.8°F6.0°C 35.7°F2.1°C 76% 4.6 mph W7.4 kmh W 10.4 mph16.7 kmh 29.84 in1010.5 mb - 0.00 in0.0 mm 0.00 in0.0 mm
09:45 AM 42.9°F6.1°C 35.9°F2.2°C 76% 3.5 mph W5.6 kmh W 3.5 mph5.6 kmh 29.84 in1010.5 mb - 0.00 in0.0 mm 0.00 in0.0 mm
09:50 AM 43.1°F6.2°C 36.0°F2.2°C 76% 3.5 mph NW5.6 kmh NW 3.5 mph5.6 kmh 29.84 in1010.5 mb - 0.00 in0.0 mm 0.00 in0.0 mm
09:55 AM 43.3°F6.3°C 36.2°F2.3°C 76% 2.3 mph SW3.7 kmh SW 4.6 mph7.4 kmh 29.84 in1010.5 mb - 0.00 in0.0 mm 0.00 in0.0 mm
10:00 AM 43.6°F6.4°C 36.6°F2.6°C 76% 4.6 mph W7.4 kmh W 6.9 mph11.1 kmh 29.84 in1010.5 mb - 0.00 in0.0 mm 0.00 in0.0 mm
10:05 AM 44.1°F6.7°C 36.6°F2.6°C 75% 2.3 mph WSW3.7 kmh WSW 6.9 mph11.1 kmh 29.84 in1010.5 mb - 0.00 in0.0 mm 0.00 in0.0 mm
10:10 AM 44.5°F6.9°C 36.8°F2.7°C 74% 5.8 mph SW9.3 kmh SW 11.5 mph18.5 kmh 29.84 in1010.5 mb - 0.00 in0.0 mm 0.00 in0.0 mm
10:15 AM 45.1°F7.3°C 36.6°F2.6°C 72% 5.8 mph NNW9.3 kmh NNW 10.4 mph16.7 kmh 29.84 in1010.5 mb - 0.00 in0.0 mm 0.00 in0.0 mm
10:20 AM 45.5°F7.5°C 36.6°F2.6°C 71% 3.5 mph NNW5.6 kmh NNW 17.3 mph27.8 kmh 29.84 in1010.5 mb - 0.00 in0.0 mm 0.00 in0.0 mm
10:25 AM 45.5°F7.5°C 35.9°F2.2°C 69% 4.6 mph N7.4 kmh N 11.5 mph18.5 kmh 29.84 in1010.5 mb - 0.00 in0.0 mm 0.00 in0.0 mm
10:30 AM 45.4°F7.4°C 35.8°F2.1°C 69% 9.2 mph NW14.8 kmh NW 21.9 mph35.2 kmh 29.84 in1010.5 mb - 0.00 in0.0 mm 0.00 in0.0 mm
10:35 AM 45.4°F7.4°C 35.8°F2.1°C 69% 6.9 mph WSW11.1 kmh WSW 11.5 mph18.5 kmh 29.84 in1010.5 mb - 0.00 in0.0 mm 0.00 in0.0 mm
10:40 AM 45.9°F7.7°C 36.0°F2.2°C 68% 8.1 mph WNW13.0 kmh WNW 15.0 mph24.1 kmh 29.84 in1010.5 mb - 0.00 in0.0 mm 0.00 in0.0 mm
10:45 AM 46.3°F7.9°C 35.9°F2.2°C 67% 3.5 mph NNW5.6 kmh NNW 8.1 mph13.0 kmh 29.84 in1010.5 mb - 0.00 in0.0 mm 0.00 in0.0 mm
10:50 AM 46.6°F8.1°C 36.6°F2.6°C 68% 9.2 mph NNW14.8 kmh NNW 19.6 mph31.5 kmh 29.85 in1010.8 mb - 0.00 in0.0 mm 0.00 in0.0 mm
10:55 AM 46.7°F8.2°C 35.9°F2.2°C 66% 10.4 mph NNW16.7 kmh NNW 15.0 mph24.1 kmh 29.85 in1010.8 mb - 0.00 in0.0 mm 0.00 in0.0 mm
11:00 AM 46.9°F8.3°C 36.1°F2.3°C 66% 11.5 mph WNW18.5 kmh WNW 12.7 mph20.4 kmh 29.84 in1010.5 mb - 0.00 in0.0 mm 0.00 in0.0 mm
11:05 AM 47.1°F8.4°C 35.9°F2.2°C 65% 12.7 mph WNW20.4 kmh WNW 21.9 mph35.2 kmh 29.85 in1010.8 mb - 0.00 in0.0 mm 0.00 in0.0 mm
11:10 AM 46.8°F8.2°C 35.7°F2.1°C 65% 11.5 mph N18.5 kmh N 19.6 mph31.5 kmh 29.85 in1010.8 mb - 0.00 in0.0 mm 0.00 in0.0 mm
11:15 AM 46.4°F8.0°C 35.3°F1.8°C 65% 12.7 mph NNW20.4 kmh NNW 16.1 mph25.9 kmh 29.86 in1011.2 mb - 0.00 in0.0 mm 0.00 in0.0 mm
11:20 AM 46.2°F7.9°C 35.1°F1.7°C 65% 9.2 mph NW14.8 kmh NW 12.7 mph20.4 kmh 29.85 in1010.8 mb - 0.00 in0.0 mm 0.00 in0.0 mm
11:25 AM 46.3°F7.9°C 35.5°F1.9°C 66% 10.4 mph NW16.7 kmh NW 17.3 mph27.8 kmh 29.86 in1011.2 mb - 0.00 in0.0 mm 0.00 in0.0 mm
11:30 AM 46.6°F8.1°C 35.8°F2.1°C 66% 9.2 mph N14.8 kmh N 16.1 mph25.9 kmh 29.86 in1011.2 mb - 0.00 in0.0 mm 0.00 in0.0 mm
11:35 AM 46.4°F8.0°C 35.7°F2.1°C 66% 16.1 mph NW25.9 kmh NW 27.6 mph44.4 kmh 29.86 in1011.2 mb - 0.00 in0.0 mm 0.00 in0.0 mm
11:40 AM 46.3°F7.9°C 35.9°F2.2°C 67% 5.8 mph WSW9.3 kmh WSW 16.1 mph25.9 kmh 29.86 in1011.2 mb - 0.00 in0.0 mm 0.00 in0.0 mm
11:45 AM 46.2°F7.9°C 35.8°F2.1°C 67% 8.1 mph NW13.0 kmh NW 13.8 mph22.2 kmh 29.86 in1011.2 mb - 0.00 in0.0 mm 0.00 in0.0 mm
11:50 AM 46.0°F7.8°C 35.7°F2.1°C 67% 9.2 mph W14.8 kmh W 9.2 mph14.8 kmh 29.86 in1011.2 mb - 0.00 in0.0 mm 0.00 in0.0 mm
11:55 AM 45.8°F7.7°C 35.5°F1.9°C 67% 12.7 mph NW20.4 kmh NW 19.6 mph31.5 kmh 29.87 in1011.5 mb - 0.00 in0.0 mm 0.00 in0.0 mm
12:00 PM 45.7°F7.6°C 36.1°F2.3°C 69% 5.8 mph NE9.3 kmh NE 8.1 mph13.0 kmh 29.87 in1011.5 mb - 0.00 in0.0 mm 0.00 in0.0 mm
12:05 PM 45.9°F7.7°C 35.6°F2.0°C 67% 4.6 mph N7.4 kmh N 11.5 mph18.5 kmh 29.87 in1011.5 mb - 0.00 in0.0 mm 0.00 in0.0 mm
12:10 PM 46.0°F7.8°C 35.7°F2.1°C 67% 8.1 mph W13.0 kmh W 11.5 mph18.5 kmh 29.88 in1011.9 mb - 0.00 in0.0 mm 0.00 in0.0 mm
12:15 PM 46.4°F8.0°C 35.3°F1.8°C 65% 5.8 mph NW9.3 kmh NW 11.5 mph18.5 kmh 29.87 in1011.5 mb - 0.00 in0.0 mm 0.00 in0.0 mm
12:20 PM 46.2°F7.9°C 35.1°F1.7°C 65% 6.9 mph NNW11.1 kmh NNW 16.1 mph25.9 kmh 29.88 in1011.9 mb - 0.00 in0.0 mm 0.00 in0.0 mm
12:25 PM 46.3°F7.9°C 35.2°F1.8°C 65% 5.8 mph N9.3 kmh N 13.8 mph22.2 kmh 29.88 in1011.9 mb - 0.00 in0.0 mm 0.00 in0.0 mm
12:30 PM 46.3°F7.9°C 35.6°F2.0°C 66% 9.2 mph NNW14.8 kmh NNW 13.8 mph22.2 kmh 29.88 in1011.9 mb - 0.00 in0.0 mm 0.00 in0.0 mm
12:35 PM 46.6°F8.1°C 35.9°F2.2°C 66% 11.5 mph NW18.5 kmh NW 20.7 mph33.3 kmh 29.88 in1011.9 mb - 0.00 in0.0 mm 0.00 in0.0 mm
12:40 PM 47.0°F8.3°C 35.5°F1.9°C 64% 13.8 mph NNW22.2 kmh NNW 21.9 mph35.2 kmh 29.89 in1012.2 mb - 0.00 in0.0 mm 0.00 in0.0 mm
12:45 PM 47.2°F8.4°C 35.2°F1.8°C 63% 10.4 mph NNW16.7 kmh NNW 18.4 mph29.6 kmh 29.89 in1012.2 mb - 0.00 in0.0 mm 0.00 in0.0 mm
12:50 PM 47.5°F8.6°C 35.5°F1.9°C 63% 13.8 mph NW22.2 kmh NW 19.6 mph31.5 kmh 29.89 in1012.2 mb - 0.00 in0.0 mm 0.00 in0.0 mm
12:55 PM 47.6°F8.7°C 34.4°F1.3°C 60% 10.4 mph N16.7 kmh N 12.7 mph20.4 kmh 29.88 in1011.9 mb - 0.00 in0.0 mm 0.00 in0.0 mm
01:00 PM 47.9°F8.8°C 34.7°F1.5°C 60% 10.4 mph NNW16.7 kmh NNW 20.7 mph33.3 kmh 29.89 in1012.2 mb - 0.00 in0.0 mm 0.00 in0.0 mm
01:05 PM 48.0°F8.9°C 34.4°F1.3°C 59% 12.7 mph NW20.4 kmh NW 17.3 mph27.8 kmh 29.88 in1011.9 mb - 0.00 in0.0 mm 0.00 in0.0 mm
01:10 PM 48.3°F9.1°C 34.6°F1.4°C 59% 8.1 mph N13.0 kmh N 32.2 mph51.8 kmh 29.88 in1011.9 mb - 0.00 in0.0 mm 0.00 in0.0 mm
01:15 PM 48.1°F8.9°C 34.0°F1.1°C 58% 11.5 mph N18.5 kmh N 20.7 mph33.3 kmh 29.88 in1011.9 mb - 0.00 in0.0 mm 0.00 in0.0 mm
01:20 PM 48.1°F8.9°C 34.4°F1.3°C 59% 12.7 mph NW20.4 kmh NW 19.6 mph31.5 kmh 29.89 in1012.2 mb - 0.00 in0.0 mm 0.00 in0.0 mm
01:25 PM 47.8°F8.8°C 33.7°F0.9°C 58% 9.2 mph NW14.8 kmh NW 19.6 mph31.5 kmh 29.89 in1012.2 mb - 0.00 in0.0 mm 0.00 in0.0 mm
01:30 PM 47.6°F8.7°C 33.5°F0.8°C 58% 13.8 mph N22.2 kmh N 28.8 mph46.3 kmh 29.88 in1011.9 mb - 0.00 in0.0 mm 0.00 in0.0 mm
01:35 PM 47.6°F8.7°C 34.0°F1.1°C 59% 15.0 mph NW24.1 kmh NW 18.4 mph29.6 kmh 29.89 in1012.2 mb - 0.00 in0.0 mm 0.00 in0.0 mm
01:40 PM 47.7°F8.7°C 33.6°F0.9°C 58% 16.1 mph N25.9 kmh N 23.0 mph37.0 kmh 29.89 in1012.2 mb - 0.00 in0.0 mm 0.00 in0.0 mm
01:45 PM 47.2°F8.4°C 33.6°F0.9°C 59% 5.8 mph W9.3 kmh W 9.2 mph14.8 kmh 29.89 in1012.2 mb - 0.00 in0.0 mm 0.00 in0.0 mm
01:50 PM 47.3°F8.5°C 34.5°F1.4°C 61% 4.6 mph SW7.4 kmh SW 6.9 mph11.1 kmh 29.89 in1012.2 mb - 0.00 in0.0 mm 0.00 in0.0 mm
01:55 PM 47.5°F8.6°C 34.7°F1.5°C 61% 6.9 mph NW11.1 kmh NW 17.3 mph27.8 kmh 29.89 in1012.2 mb - 0.00 in0.0 mm 0.00 in0.0 mm
02:00 PM 47.7°F8.7°C 34.9°F1.6°C 61% 9.2 mph NW14.8 kmh NW 18.4 mph29.6 kmh 29.89 in1012.2 mb - 0.00 in0.0 mm 0.00 in0.0 mm
02:05 PM 47.7°F8.7°C 35.3°F1.8°C 62% 11.5 mph N18.5 kmh N 20.7 mph33.3 kmh 29.89 in1012.2 mb - 0.00 in0.0 mm 0.00 in0.0 mm
02:10 PM 47.7°F8.7°C 34.5°F1.4°C 60% 9.2 mph NW14.8 kmh NW 20.7 mph33.3 kmh 29.89 in1012.2 mb - 0.00 in0.0 mm 0.00 in0.0 mm
02:15 PM 47.6°F8.7°C 34.8°F1.6°C 61% 11.5 mph NW18.5 kmh NW 18.4 mph29.6 kmh 29.90 in1012.5 mb - 0.00 in0.0 mm 0.00 in0.0 mm
02:20 PM 47.3°F8.5°C 34.9°F1.6°C 62% 11.5 mph NNE18.5 kmh NNE 20.7 mph33.3 kmh 29.90 in1012.5 mb - 0.00 in0.0 mm 0.00 in0.0 mm
02:25 PM 47.0°F8.3°C 34.2°F1.2°C 61% 8.1 mph NNW13.0 kmh NNW 11.5 mph18.5 kmh 29.90 in1012.5 mb - 0.00 in0.0 mm 0.00 in0.0 mm
02:30 PM 46.9°F8.3°C 34.1°F1.2°C 61% 10.4 mph N16.7 kmh N 13.8 mph22.2 kmh 29.90 in1012.5 mb - 0.00 in0.0 mm 0.00 in0.0 mm
02:35 PM 47.0°F8.3°C 34.6°F1.4°C 62% 12.7 mph N20.4 kmh N 18.4 mph29.6 kmh 29.91 in1012.9 mb - 0.00 in0.0 mm 0.00 in0.0 mm
02:40 PM 47.2°F8.4°C 34.0°F1.1°C 60% 10.4 mph NW16.7 kmh NW 11.5 mph18.5 kmh 29.91 in1012.9 mb - 0.00 in0.0 mm 0.00 in0.0 mm
02:45 PM 47.1°F8.4°C 33.9°F1.1°C 60% 6.9 mph N11.1 kmh N 19.6 mph31.5 kmh 29.91 in1012.9 mb - 0.00 in0.0 mm 0.00 in0.0 mm
02:50 PM 47.0°F8.3°C 34.2°F1.2°C 61% 12.7 mph N20.4 kmh N 20.7 mph33.3 kmh 29.91 in1012.9 mb - 0.00 in0.0 mm 0.00 in0.0 mm
02:55 PM 46.8°F8.2°C 34.0°F1.1°C 61% 11.5 mph NNW18.5 kmh NNW 17.3 mph27.8 kmh 29.91 in1012.9 mb - 0.00 in0.0 mm 0.00 in0.0 mm
03:00 PM 46.5°F8.1°C 33.8°F1.0°C 61% 12.7 mph NNW20.4 kmh NNW 26.5 mph42.6 kmh 29.92 in1013.2 mb - 0.00 in0.0 mm 0.00 in0.0 mm
03:05 PM 46.1°F7.8°C 33.4°F0.8°C 61% 10.4 mph N16.7 kmh N 21.9 mph35.2 kmh 29.91 in1012.9 mb - 0.00 in0.0 mm 0.00 in0.0 mm
03:10 PM 46.0°F7.8°C 34.1°F1.2°C 63% 4.6 mph NNW7.4 kmh NNW 9.2 mph14.8 kmh 29.91 in1012.9 mb - 0.01 in0.3 mm 0.01 in0.3 mm
03:15 PM 46.0°F7.8°C 33.7°F0.9°C 62% 12.7 mph NNW20.4 kmh NNW 26.5 mph42.6 kmh 29.91 in1012.9 mb - 0.00 in0.0 mm 0.01 in0.3 mm
03:20 PM 45.9°F7.7°C 33.6°F0.9°C 62% 12.7 mph NW20.4 kmh NW 23.0 mph37.0 kmh 29.91 in1012.9 mb - 0.00 in0.0 mm 0.01 in0.3 mm
03:25 PM 45.7°F7.6°C 33.9°F1.1°C 63% 8.1 mph W13.0 kmh W 20.7 mph33.3 kmh 29.92 in1013.2 mb - 0.00 in0.0 mm 0.01 in0.3 mm
03:30 PM 45.6°F7.6°C 33.7°F0.9°C 63% 9.2 mph WNW14.8 kmh WNW 17.3 mph27.8 kmh 29.92 in1013.2 mb - 0.00 in0.0 mm 0.01 in0.3 mm
03:35 PM 45.5°F7.5°C 34.0°F1.1°C 64% 8.1 mph W13.0 kmh W 11.5 mph18.5 kmh 29.92 in1013.2 mb - 0.00 in0.0 mm 0.01 in0.3 mm
03:40 PM 45.3°F7.4°C 33.5°F0.8°C 63% 12.7 mph NW20.4 kmh NW 16.1 mph25.9 kmh 29.92 in1013.2 mb - 0.00 in0.0 mm 0.01 in0.3 mm
03:45 PM 45.1°F7.3°C 32.9°F0.5°C 62% 9.2 mph N14.8 kmh N 23.0 mph37.0 kmh 29.93 in1013.5 mb - 0.00 in0.0 mm 0.01 in0.3 mm
03:50 PM 45.0°F7.2°C 33.2°F0.7°C 63% 6.9 mph NW11.1 kmh NW 11.5 mph18.5 kmh 29.93 in1013.5 mb - 0.00 in0.0 mm 0.01 in0.3 mm
03:55 PM 44.8°F7.1°C 32.9°F0.5°C 63% 6.9 mph W11.1 kmh W 9.2 mph14.8 kmh 29.94 in1013.9 mb - 0.00 in0.0 mm 0.01 in0.3 mm
04:00 PM 44.6°F7.0°C 33.1°F0.6°C 64% 4.6 mph WNW7.4 kmh WNW 10.4 mph16.7 kmh 29.94 in1013.9 mb - 0.00 in0.0 mm 0.01 in0.3 mm
04:05 PM 44.3°F6.8°C 32.9°F0.5°C 64% 2.3 mph W3.7 kmh W 4.6 mph7.4 kmh 29.95 in1014.2 mb - 0.00 in0.0 mm 0.01 in0.3 mm
04:10 PM 44.1°F6.7°C 32.7°F0.4°C 64% 2.3 mph NW3.7 kmh NW 3.5 mph5.6 kmh 29.95 in1014.2 mb - 0.00 in0.0 mm 0.01 in0.3 mm
04:15 PM 43.8°F6.6°C 32.8°F0.4°C 65% 5.8 mph WSW9.3 kmh WSW 8.1 mph13.0 kmh 29.95 in1014.2 mb - 0.00 in0.0 mm 0.01 in0.3 mm
04:20 PM 43.6°F6.4°C 32.6°F0.3°C 65% 4.6 mph WSW7.4 kmh WSW 6.9 mph11.1 kmh 29.96 in1014.6 mb - 0.00 in0.0 mm 0.01 in0.3 mm
04:25 PM 43.6°F6.4°C 33.0°F0.6°C 66% 3.5 mph NW5.6 kmh NW 4.6 mph7.4 kmh 29.96 in1014.6 mb - 0.00 in0.0 mm 0.01 in0.3 mm
04:30 PM 43.5°F6.4°C 33.2°F0.7°C 67% 3.5 mph NW5.6 kmh NW 3.5 mph5.6 kmh 29.96 in1014.6 mb - 0.00 in0.0 mm 0.01 in0.3 mm
04:35 PM 43.4°F6.3°C 33.2°F0.7°C 67% 5.8 mph NW9.3 kmh NW 8.1 mph13.0 kmh 29.97 in1014.9 mb - 0.00 in0.0 mm 0.01 in0.3 mm
04:40 PM 43.5°F6.4°C 33.2°F0.7°C 67% 4.6 mph WNW7.4 kmh WNW 8.1 mph13.0 kmh 29.96 in1014.6 mb - 0.00 in0.0 mm 0.01 in0.3 mm
04:45 PM 43.3°F6.3°C 33.1°F0.6°C 67% 4.6 mph NNW7.4 kmh NNW 11.5 mph18.5 kmh 29.96 in1014.6 mb - 0.00 in0.0 mm 0.01 in0.3 mm
04:50 PM 43.3°F6.3°C 33.1°F0.6°C 67% 6.9 mph NW11.1 kmh NW 11.5 mph18.5 kmh 29.97 in1014.9 mb - 0.00 in0.0 mm 0.01 in0.3 mm
04:55 PM 43.2°F6.2°C 33.0°F0.6°C 67% 3.5 mph NW5.6 kmh NW 4.6 mph7.4 kmh 29.97 in1014.9 mb - 0.00 in0.0 mm 0.01 in0.3 mm
05:00 PM 43.0°F6.1°C 33.1°F0.6°C 68% 4.6 mph NW7.4 kmh NW 9.2 mph14.8 kmh 29.97 in1014.9 mb - 0.00 in0.0 mm 0.01 in0.3 mm
05:05 PM 42.7°F5.9°C 32.9°F0.5°C 68% 4.6 mph WSW7.4 kmh WSW 8.1 mph13.0 kmh 29.97 in1014.9 mb - 0.00 in0.0 mm 0.01 in0.3 mm
05:10 PM 42.5°F5.8°C 33.0°F0.6°C 69% 5.8 mph NW9.3 kmh NW 11.5 mph18.5 kmh 29.97 in1014.9 mb - 0.00 in0.0 mm 0.01 in0.3 mm
05:15 PM 42.4°F5.8°C 33.0°F0.6°C 69% 6.9 mph NW11.1 kmh NW 12.7 mph20.4 kmh 29.97 in1014.9 mb - 0.00 in0.0 mm 0.01 in0.3 mm
05:20 PM 42.3°F5.7°C 32.9°F0.5°C 69% 4.6 mph W7.4 kmh W 8.1 mph13.0 kmh 29.97 in1014.9 mb - 0.00 in0.0 mm 0.01 in0.3 mm
05:25 PM 42.1°F5.6°C 32.7°F0.4°C 69% 4.6 mph NW7.4 kmh NW 8.1 mph13.0 kmh 29.98 in1015.2 mb - 0.00 in0.0 mm 0.01 in0.3 mm
05:30 PM 41.9°F5.5°C 32.8°F0.4°C 70% 5.8 mph NW9.3 kmh NW 8.1 mph13.0 kmh 29.98 in1015.2 mb - 0.00 in0.0 mm 0.01 in0.3 mm
05:35 PM 41.6°F5.3°C 32.6°F0.3°C 70% 3.5 mph W5.6 kmh W 8.1 mph13.0 kmh 29.98 in1015.2 mb - 0.00 in0.0 mm 0.01 in0.3 mm
05:40 PM 41.3°F5.2°C 32.6°F0.3°C 71% 5.8 mph NW9.3 kmh NW 11.5 mph18.5 kmh 29.98 in1015.2 mb - 0.00 in0.0 mm 0.01 in0.3 mm
05:45 PM 41.3°F5.2°C 32.3°F0.2°C 70% 3.5 mph NNW5.6 kmh NNW 4.6 mph7.4 kmh 29.98 in1015.2 mb - 0.00 in0.0 mm 0.01 in0.3 mm
05:50 PM 41.5°F5.3°C 32.4°F0.2°C 70% 6.9 mph NW11.1 kmh NW 11.5 mph18.5 kmh 29.97 in1014.9 mb - 0.00 in0.0 mm 0.01 in0.3 mm
05:55 PM 41.5°F5.3°C 32.1°F0.1°C 69% 5.8 mph NW9.3 kmh NW 8.1 mph13.0 kmh 29.97 in1014.9 mb - 0.00 in0.0 mm 0.01 in0.3 mm
06:00 PM 41.5°F5.3°C 31.7°F-0.2°C 68% 8.1 mph NW13.0 kmh NW 11.5 mph18.5 kmh 29.98 in1015.2 mb - 0.00 in0.0 mm 0.01 in0.3 mm
06:05 PM 41.7°F5.4°C 31.6°F-0.2°C 67% 10.4 mph NNW16.7 kmh NNW 19.6 mph31.5 kmh 29.98 in1015.2 mb - 0.00 in0.0 mm 0.01 in0.3 mm
06:10 PM 42.1°F5.6°C 31.9°F-0.1°C 67% 10.4 mph NW16.7 kmh NW 17.3 mph27.8 kmh 29.98 in1015.2 mb - 0.00 in0.0 mm 0.01 in0.3 mm
06:15 PM 42.1°F5.6°C 31.9°F-0.1°C 67% 16.1 mph NNW25.9 kmh NNW 24.2 mph38.9 kmh 29.99 in1015.6 mb - 0.00 in0.0 mm 0.01 in0.3 mm
06:20 PM 42.0°F5.6°C 32.6°F0.3°C 69% 12.7 mph NW20.4 kmh NW 13.8 mph22.2 kmh 29.99 in1015.6 mb - 0.00 in0.0 mm 0.01 in0.3 mm
06:25 PM 41.8°F5.4°C 32.4°F0.2°C 69% 4.6 mph N7.4 kmh N 15.0 mph24.1 kmh 29.98 in1015.2 mb - 0.00 in0.0 mm 0.01 in0.3 mm
06:30 PM 41.6°F5.3°C 32.5°F0.3°C 70% 5.8 mph WNW9.3 kmh WNW 17.3 mph27.8 kmh 29.99 in1015.6 mb - 0.00 in0.0 mm 0.01 in0.3 mm
06:35 PM 41.4°F5.2°C 32.3°F0.2°C 70% 5.8 mph WNW9.3 kmh WNW 9.2 mph14.8 kmh 29.99 in1015.6 mb - 0.00 in0.0 mm 0.01 in0.3 mm
06:40 PM 41.2°F5.1°C 32.2°F0.1°C 70% 4.6 mph W7.4 kmh W 11.5 mph18.5 kmh 29.99 in1015.6 mb - 0.00 in0.0 mm 0.01 in0.3 mm
06:45 PM 41.0°F5.0°C 32.3°F0.2°C 71% 3.5 mph NW5.6 kmh NW 4.6 mph7.4 kmh 29.99 in1015.6 mb - 0.00 in0.0 mm 0.01 in0.3 mm
06:50 PM 40.9°F4.9°C 32.2°F0.1°C 71% 5.8 mph NNW9.3 kmh NNW 13.8 mph22.2 kmh 30.00 in1015.9 mb - 0.00 in0.0 mm 0.01 in0.3 mm
06:55 PM 40.7°F4.8°C 32.1°F0.1°C 71% 4.6 mph NW7.4 kmh NW 10.4 mph16.7 kmh 30.00 in1015.9 mb - 0.00 in0.0 mm 0.01 in0.3 mm
07:00 PM 40.7°F4.8°C 32.0°F0.0°C 71% 10.4 mph NW16.7 kmh NW 16.1 mph25.9 kmh 30.00 in1015.9 mb - 0.00 in0.0 mm 0.01 in0.3 mm
07:05 PM 40.7°F4.8°C 32.1°F0.1°C 71% 5.8 mph W9.3 kmh W 15.0 mph24.1 kmh 30.00 in1015.9 mb - 0.00 in0.0 mm 0.01 in0.3 mm
07:10 PM 40.8°F4.9°C 32.1°F0.1°C 71% 6.9 mph WNW11.1 kmh WNW 8.1 mph13.0 kmh 29.99 in1015.6 mb - 0.00 in0.0 mm 0.01 in0.3 mm
07:15 PM 40.7°F4.8°C 32.0°F0.0°C 71% 5.8 mph NW9.3 kmh NW 6.9 mph11.1 kmh 30.00 in1015.9 mb - 0.00 in0.0 mm 0.01 in0.3 mm
07:20 PM 40.5°F4.7°C 31.8°F-0.1°C 71% 6.9 mph WNW11.1 kmh WNW 15.0 mph24.1 kmh 29.99 in1015.6 mb - 0.00 in0.0 mm 0.01 in0.3 mm
07:25 PM 40.4°F4.7°C 31.7°F-0.2°C 71% 9.2 mph NNW14.8 kmh NNW 12.7 mph20.4 kmh 30.00 in1015.9 mb - 0.00 in0.0 mm 0.01 in0.3 mm
07:30 PM 40.7°F4.8°C 31.7°F-0.2°C 70% 10.4 mph WNW16.7 kmh WNW 19.6 mph31.5 kmh 29.99 in1015.6 mb - 0.00 in0.0 mm 0.01 in0.3 mm
07:35 PM 40.7°F4.8°C 31.7°F-0.2°C 70% 5.8 mph NW9.3 kmh NW 11.5 mph18.5 kmh 29.99 in1015.6 mb - 0.00 in0.0 mm 0.01 in0.3 mm
07:40 PM 40.6°F4.8°C 31.6°F-0.2°C 70% 8.1 mph NW13.0 kmh NW 13.8 mph22.2 kmh 29.99 in1015.6 mb - 0.00 in0.0 mm 0.01 in0.3 mm
07:45 PM 40.7°F4.8°C 31.7°F-0.2°C 70% 10.4 mph W16.7 kmh W 13.8 mph22.2 kmh 30.00 in1015.9 mb - 0.00 in0.0 mm 0.01 in0.3 mm
07:50 PM 40.8°F4.9°C 31.4°F-0.3°C 69% 10.4 mph NW16.7 kmh NW 19.6 mph31.5 kmh 30.00 in1015.9 mb - 0.00 in0.0 mm 0.01 in0.3 mm
07:55 PM 40.9°F4.9°C 31.5°F-0.3°C 69% 6.9 mph WNW11.1 kmh WNW 11.5 mph18.5 kmh 30.00 in1015.9 mb - 0.00 in0.0 mm 0.01 in0.3 mm
08:00 PM 40.9°F4.9°C 31.5°F-0.3°C 69% 12.7 mph NW20.4 kmh NW 21.9 mph35.2 kmh 30.00 in1015.9 mb - 0.00 in0.0 mm 0.01 in0.3 mm
08:05 PM 41.0°F5.0°C 31.6°F-0.2°C 69% 8.1 mph NNW13.0 kmh NNW 18.4 mph29.6 kmh 30.00 in1015.9 mb - 0.00 in0.0 mm 0.01 in0.3 mm
08:10 PM 41.1°F5.1°C 31.3°F-0.4°C 68% 12.7 mph NW20.4 kmh NW 19.6 mph31.5 kmh 30.00 in1015.9 mb - 0.00 in0.0 mm 0.01 in0.3 mm
08:15 PM 41.4°F5.2°C 31.3°F-0.4°C 67% 12.7 mph NW20.4 kmh NW 19.6 mph31.5 kmh 30.00 in1015.9 mb - 0.00 in0.0 mm 0.01 in0.3 mm
08:20 PM 41.5°F5.3°C 31.4°F-0.3°C 67% 13.8 mph W22.2 kmh W 20.7 mph33.3 kmh 30.00 in1015.9 mb - 0.00 in0.0 mm 0.01 in0.3 mm
08:25 PM 41.5°F5.3°C 31.3°F-0.4°C 67% 12.7 mph NW20.4 kmh NW 29.9 mph48.1 kmh 30.00 in1015.9 mb - 0.00 in0.0 mm 0.01 in0.3 mm
08:30 PM 41.4°F5.2°C 31.3°F-0.4°C 67% 12.7 mph NW20.4 kmh NW 20.7 mph33.3 kmh 30.00 in1015.9 mb - 0.00 in0.0 mm 0.01 in0.3 mm
08:35 PM 41.4°F5.2°C 31.3°F-0.4°C 67% 12.7 mph NW20.4 kmh NW 21.9 mph35.2 kmh 30.00 in1015.9 mb - 0.00 in0.0 mm 0.01 in0.3 mm
08:40 PM 41.4°F5.2°C 31.7°F-0.2°C 68% 11.5 mph NW18.5 kmh NW 18.4 mph29.6 kmh 30.00 in1015.9 mb - 0.00 in0.0 mm 0.01 in0.3 mm
08:45 PM 41.4°F5.2°C 31.3°F-0.4°C 67% 12.7 mph NW20.4 kmh NW 23.0 mph37.0 kmh 30.00 in1015.9 mb - 0.00 in0.0 mm 0.01 in0.3 mm
08:50 PM 41.4°F5.2°C 30.9°F-0.6°C 66% 12.7 mph NNW20.4 kmh NNW 26.5 mph42.6 kmh 30.00 in1015.9 mb - 0.00 in0.0 mm 0.01 in0.3 mm
08:55 PM 41.3°F5.2°C 31.2°F-0.4°C 67% 13.8 mph NW22.2 kmh NW 19.6 mph31.5 kmh 30.00 in1015.9 mb - 0.00 in0.0 mm 0.01 in0.3 mm
09:00 PM 41.2°F5.1°C 31.1°F-0.5°C 67% 17.3 mph NW27.8 kmh NW 29.9 mph48.1 kmh 30.00 in1015.9 mb - 0.00 in0.0 mm 0.01 in0.3 mm
09:05 PM 41.2°F5.1°C 31.1°F-0.5°C 67% 15.0 mph NW24.1 kmh NW 24.2 mph38.9 kmh 30.00 in1015.9 mb - 0.00 in0.0 mm 0.01 in0.3 mm
09:10 PM 41.1°F5.1°C 31.3°F-0.4°C 68% 11.5 mph NW18.5 kmh NW 17.3 mph27.8 kmh 30.00 in1015.9 mb - 0.00 in0.0 mm 0.01 in0.3 mm
09:15 PM 41.0°F5.0°C 32.3°F0.2°C 71% 13.8 mph WNW22.2 kmh WNW 19.6 mph31.5 kmh 30.01 in1016.3 mb - 0.00 in0.0 mm 0.01 in0.3 mm
09:20 PM 40.9°F4.9°C 31.2°F-0.4°C 68% 6.9 mph WNW11.1 kmh WNW 12.7 mph20.4 kmh 30.01 in1016.3 mb - 0.00 in0.0 mm 0.01 in0.3 mm
09:25 PM 40.8°F4.9°C 31.1°F-0.5°C 68% 13.8 mph NW22.2 kmh NW 19.6 mph31.5 kmh 30.01 in1016.3 mb - 0.00 in0.0 mm 0.01 in0.3 mm
09:30 PM 40.8°F4.9°C 31.1°F-0.5°C 68% 8.1 mph WSW13.0 kmh WSW 13.8 mph22.2 kmh 30.01 in1016.3 mb - 0.00 in0.0 mm 0.01 in0.3 mm
09:35 PM 40.5°F4.7°C 30.8°F-0.7°C 68% 4.6 mph NW7.4 kmh NW 9.2 mph14.8 kmh 30.01 in1016.3 mb - 0.00 in0.0 mm 0.01 in0.3 mm
09:40 PM 40.3°F4.6°C 30.6°F-0.8°C 68% 8.1 mph WNW13.0 kmh WNW 13.8 mph22.2 kmh 30.01 in1016.3 mb - 0.00 in0.0 mm 0.01 in0.3 mm
09:45 PM 40.1°F4.5°C 30.8°F-0.7°C 69% 2.3 mph WNW3.7 kmh WNW 3.5 mph5.6 kmh 30.01 in1016.3 mb - 0.00 in0.0 mm 0.01 in0.3 mm
09:50 PM 39.8°F4.3°C 30.4°F-0.9°C 69% 3.5 mph NW5.6 kmh NW 3.5 mph5.6 kmh 30.01 in1016.3 mb - 0.00 in0.0 mm 0.01 in0.3 mm
09:55 PM 39.5°F4.2°C 30.5°F-0.8°C 70% 5.8 mph NW9.3 kmh NW 10.4 mph16.7 kmh 30.02 in1016.6 mb - 0.00 in0.0 mm 0.01 in0.3 mm
10:00 PM 39.3°F4.1°C 30.3°F-0.9°C 70% 5.8 mph W9.3 kmh W 5.8 mph9.3 kmh 30.02 in1016.6 mb - 0.00 in0.0 mm 0.01 in0.3 mm
10:05 PM 39.3°F4.1°C 30.3°F-0.9°C 70% 4.6 mph WNW7.4 kmh WNW 6.9 mph11.1 kmh 30.02 in1016.6 mb - 0.00 in0.0 mm 0.01 in0.3 mm
10:10 PM 39.2°F4.0°C 29.9°F-1.2°C 69% 6.9 mph W11.1 kmh W 10.4 mph16.7 kmh 30.02 in1016.6 mb - 0.00 in0.0 mm 0.01 in0.3 mm
10:15 PM 39.4°F4.1°C 30.1°F-1.1°C 69% 9.2 mph NNW14.8 kmh NNW 11.5 mph18.5 kmh 30.02 in1016.6 mb - 0.00 in0.0 mm 0.01 in0.3 mm
10:20 PM 39.6°F4.2°C 29.9°F-1.2°C 68% 8.1 mph W13.0 kmh W 12.7 mph20.4 kmh 30.02 in1016.6 mb - 0.00 in0.0 mm 0.01 in0.3 mm
10:25 PM 39.7°F4.3°C 30.0°F-1.1°C 68% 6.9 mph NW11.1 kmh NW 11.5 mph18.5 kmh 30.02 in1016.6 mb - 0.00 in0.0 mm 0.01 in0.3 mm
10:30 PM 39.8°F4.3°C 29.7°F-1.3°C 67% 4.6 mph NNW7.4 kmh NNW 13.8 mph22.2 kmh 30.02 in1016.6 mb - 0.00 in0.0 mm 0.01 in0.3 mm
10:35 PM 40.0°F4.4°C 29.9°F-1.2°C 67% 6.9 mph NW11.1 kmh NW 11.5 mph18.5 kmh 30.02 in1016.6 mb - 0.00 in0.0 mm 0.01 in0.3 mm
10:40 PM 40.0°F4.4°C 30.3°F-0.9°C 68% 8.1 mph NW13.0 kmh NW 9.2 mph14.8 kmh 30.02 in1016.6 mb - 0.00 in0.0 mm 0.01 in0.3 mm
10:45 PM 39.8°F4.3°C 30.1°F-1.1°C 68% 4.6 mph NW7.4 kmh NW 9.2 mph14.8 kmh 30.02 in1016.6 mb - 0.00 in0.0 mm 0.01 in0.3 mm
10:50 PM 39.8°F4.3°C 30.1°F-1.1°C 68% 8.1 mph NW13.0 kmh NW 15.0 mph24.1 kmh 30.01 in1016.3 mb - 0.00 in0.0 mm 0.01 in0.3 mm
10:55 PM 39.8°F4.3°C 30.5°F-0.8°C 69% 9.2 mph WNW14.8 kmh WNW 11.5 mph18.5 kmh 30.01 in1016.3 mb - 0.00 in0.0 mm 0.01 in0.3 mm
11:00 PM 39.8°F4.3°C 30.4°F-0.9°C 69% 8.1 mph WNW13.0 kmh WNW 11.5 mph18.5 kmh 30.01 in1016.3 mb - 0.00 in0.0 mm 0.01 in0.3 mm
11:05 PM 39.7°F4.3°C 30.7°F-0.7°C 70% 8.1 mph NW13.0 kmh NW 12.7 mph20.4 kmh 30.01 in1016.3 mb - 0.00 in0.0 mm 0.01 in0.3 mm
11:10 PM 39.5°F4.2°C 30.5°F-0.8°C 70% 5.8 mph W9.3 kmh W 11.5 mph18.5 kmh 30.00 in1015.9 mb - 0.00 in0.0 mm 0.01 in0.3 mm
11:15 PM 39.4°F4.1°C 30.4°F-0.9°C 70% 11.5 mph NW18.5 kmh NW 15.0 mph24.1 kmh 30.01 in1016.3 mb - 0.00 in0.0 mm 0.01 in0.3 mm
11:20 PM 39.5°F4.2°C 30.5°F-0.8°C 70% 10.4 mph WNW16.7 kmh WNW 17.3 mph27.8 kmh 30.01 in1016.3 mb - 0.00 in0.0 mm 0.01 in0.3 mm
11:25 PM 39.6°F4.2°C 30.6°F-0.8°C 70% 17.3 mph NW27.8 kmh NW 25.3 mph40.7 kmh 30.01 in1016.3 mb - 0.00 in0.0 mm 0.01 in0.3 mm
11:30 PM 39.8°F4.3°C 30.5°F-0.8°C 69% 12.7 mph WNW20.4 kmh WNW 21.9 mph35.2 kmh 30.01 in1016.3 mb - 0.00 in0.0 mm 0.01 in0.3 mm
11:35 PM 39.9°F4.4°C 30.6°F-0.8°C 69% 16.1 mph W25.9 kmh W 19.6 mph31.5 kmh 30.00 in1015.9 mb - 0.00 in0.0 mm 0.01 in0.3 mm
11:40 PM 40.0°F4.4°C 31.0°F-0.6°C 70% 13.8 mph NW22.2 kmh NW 24.2 mph38.9 kmh 30.00 in1015.9 mb - 0.00 in0.0 mm 0.01 in0.3 mm
11:45 PM 40.0°F4.4°C 31.0°F-0.6°C 70% 16.1 mph NW25.9 kmh NW 27.6 mph44.4 kmh 30.00 in1015.9 mb - 0.00 in0.0 mm 0.01 in0.3 mm
11:50 PM 40.1°F4.5°C 31.1°F-0.5°C 70% 12.7 mph NW20.4 kmh NW 19.6 mph31.5 kmh 30.00 in1015.9 mb - 0.00 in0.0 mm 0.01 in0.3 mm
11:55 PM 40.1°F4.5°C 31.1°F-0.5°C 70% 9.2 mph NW14.8 kmh NW 21.9 mph35.2 kmh 30.01 in1016.3 mb - 0.00 in0.0 mm 0.01 in0.3 mm